sensor_id;sensor_type;location;lat;lon;timestamp;pressure;altitude;pressure_sealevel;temperature;humidity
58223;BME280;44020;50.890;15.796;2022-08-03T00:02:55;97863.83;;;16.99;71.80
58223;BME280;44020;50.890;15.796;2022-08-03T00:12:25;97869.40;;;16.88;72.13
58223;BME280;44020;50.890;15.796;2022-08-03T00:18:08;97871.13;;;16.82;72.12
58223;BME280;44020;50.890;15.796;2022-08-03T00:21:16;97871.27;;;16.81;72.20
58223;BME280;44020;50.890;15.796;2022-08-03T00:24:27;97874.20;;;16.76;72.30
58223;BME280;44020;50.890;15.796;2022-08-03T00:27:03;97872.86;;;16.75;72.35
58223;BME280;44020;50.890;15.796;2022-08-03T00:29:50;97870.60;;;16.72;72.50
58223;BME280;44020;50.890;15.796;2022-08-03T00:32:58;97867.42;;;16.68;72.56
58223;BME280;44020;50.890;15.796;2022-08-03T00:35:51;97864.63;;;16.61;72.54
58223;BME280;44020;50.890;15.796;2022-08-03T00:41:38;97864.75;;;16.56;72.62
58223;BME280;44020;50.890;15.796;2022-08-03T00:44:19;97867.11;;;16.56;72.62
58223;BME280;44020;50.890;15.796;2022-08-03T00:47:15;97865.66;;;16.54;72.64
58223;BME280;44020;50.890;15.796;2022-08-03T00:49:42;97862.45;;;16.48;72.74
58223;BME280;44020;50.890;15.796;2022-08-03T00:52:10;97861.40;;;16.46;72.78
58223;BME280;44020;50.890;15.796;2022-08-03T00:54:39;97860.23;;;16.41;72.48
58223;BME280;44020;50.890;15.796;2022-08-03T00:57:07;97861.21;;;16.36;72.62
58223;BME280;44020;50.890;15.796;2022-08-03T00:59:34;97855.66;;;16.32;72.77
58223;BME280;44020;50.890;15.796;2022-08-03T01:02:04;97853.23;;;16.31;72.91
58223;BME280;44020;50.890;15.796;2022-08-03T01:04:51;97854.05;;;16.28;72.91
58223;BME280;44020;50.890;15.796;2022-08-03T01:15:45;97858.51;;;16.15;73.41
58223;BME280;44020;50.890;15.796;2022-08-03T01:18:21;97856.28;;;16.11;73.41
58223;BME280;44020;50.890;15.796;2022-08-03T01:20:55;97852.89;;;16.09;73.64
58223;BME280;44020;50.890;15.796;2022-08-03T01:31:42;97853.63;;;16.11;74.29
58223;BME280;44020;50.890;15.796;2022-08-03T01:34:15;97852.33;;;16.11;74.21
58223;BME280;44020;50.890;15.796;2022-08-03T01:37:04;97850.14;;;16.08;74.03
58223;BME280;44020;50.890;15.796;2022-08-03T01:39:35;97848.27;;;16.05;74.38
58223;BME280;44020;50.890;15.796;2022-08-03T01:42:12;97847.59;;;16.05;74.60
58223;BME280;44020;50.890;15.796;2022-08-03T01:44:43;97847.98;;;16.02;74.52
58223;BME280;44020;50.890;15.796;2022-08-03T01:47:11;97845.92;;;15.99;74.72
58223;BME280;44020;50.890;15.796;2022-08-03T01:49:42;97848.73;;;15.99;74.87
58223;BME280;44020;50.890;15.796;2022-08-03T01:52:16;97847.61;;;15.98;74.89
58223;BME280;44020;50.890;15.796;2022-08-03T01:54:51;97850.50;;;15.94;75.00
58223;BME280;44020;50.890;15.796;2022-08-03T01:57:20;97849.09;;;15.92;75.17
58223;BME280;44020;50.890;15.796;2022-08-03T01:59:55;97849.45;;;15.92;75.15
58223;BME280;44020;50.890;15.796;2022-08-03T02:02:25;97845.53;;;15.89;75.09
58223;BME280;44020;50.890;15.796;2022-08-03T02:04:54;97841.76;;;15.88;75.36
58223;BME280;44020;50.890;15.796;2022-08-03T02:07:24;97841.87;;;15.87;75.30
58223;BME280;44020;50.890;15.796;2022-08-03T02:09:53;97840.71;;;15.85;75.45
58223;BME280;44020;50.890;15.796;2022-08-03T02:12:23;97837.88;;;15.87;75.54
58223;BME280;44020;50.890;15.796;2022-08-03T02:14:52;97836.86;;;15.86;75.70
58223;BME280;44020;50.890;15.796;2022-08-03T02:17:23;97833.50;;;15.86;75.86
58223;BME280;44020;50.890;15.796;2022-08-03T02:19:51;97834.01;;;15.86;75.83
58223;BME280;44020;50.890;15.796;2022-08-03T02:22:20;97836.41;;;15.85;75.82
58223;BME280;44020;50.890;15.796;2022-08-03T02:24:49;97835.98;;;15.82;75.91
58223;BME280;44020;50.890;15.796;2022-08-03T02:27:22;97833.89;;;15.79;75.98
58223;BME280;44020;50.890;15.796;2022-08-03T02:29:57;97833.78;;;15.79;75.97
58223;BME280;44020;50.890;15.796;2022-08-03T02:32:33;97828.34;;;15.75;75.89
58223;BME280;44020;50.890;15.796;2022-08-03T02:35:03;97826.42;;;15.73;76.10
58223;BME280;44020;50.890;15.796;2022-08-03T02:37:35;97828.27;;;15.72;76.05
58223;BME280;44020;50.890;15.796;2022-08-03T02:40:08;97828.51;;;15.72;76.28
58223;BME280;44020;50.890;15.796;2022-08-03T02:42:37;97829.22;;;15.72;76.24
58223;BME280;44020;50.890;15.796;2022-08-03T02:45:08;97830.86;;;15.71;76.38
58223;BME280;44020;50.890;15.796;2022-08-03T02:47:41;97834.08;;;15.71;76.42
58223;BME280;44020;50.890;15.796;2022-08-03T02:50:11;97832.69;;;15.69;76.51
58223;BME280;44020;50.890;15.796;2022-08-03T02:52:40;97835.63;;;15.66;76.50
58223;BME280;44020;50.890;15.796;2022-08-03T02:55:11;97839.45;;;15.65;76.58
58223;BME280;44020;50.890;15.796;2022-08-03T02:57:42;97837.47;;;15.63;76.54
58223;BME280;44020;50.890;15.796;2022-08-03T03:00:11;97838.11;;;15.61;76.69
58223;BME280;44020;50.890;15.796;2022-08-03T03:02:39;97836.73;;;15.61;76.67
58223;BME280;44020;50.890;15.796;2022-08-03T03:05:09;97837.94;;;15.59;76.82
58223;BME280;44020;50.890;15.796;2022-08-03T03:07:37;97840.73;;;15.58;77.03
58223;BME280;44020;50.890;15.796;2022-08-03T03:10:06;97842.88;;;15.58;77.10
58223;BME280;44020;50.890;15.796;2022-08-03T03:12:35;97844.47;;;15.58;77.10
58223;BME280;44020;50.890;15.796;2022-08-03T03:15:04;97841.39;;;15.57;77.04
58223;BME280;44020;50.890;15.796;2022-08-03T03:17:33;97842.20;;;15.56;77.26
58223;BME280;44020;50.890;15.796;2022-08-03T03:20:01;97843.73;;;15.57;77.36
58223;BME280;44020;50.890;15.796;2022-08-03T03:22:29;97843.13;;;15.57;77.34
58223;BME280;44020;50.890;15.796;2022-08-03T03:24:59;97839.65;;;15.56;77.26
58223;BME280;44020;50.890;15.796;2022-08-03T03:27:28;97839.33;;;15.54;77.35
58223;BME280;44020;50.890;15.796;2022-08-03T03:29:56;97840.83;;;15.53;77.41
58223;BME280;44020;50.890;15.796;2022-08-03T03:32:26;97844.52;;;15.52;77.51
58223;BME280;44020;50.890;15.796;2022-08-03T03:34:54;97844.34;;;15.50;77.52
58223;BME280;44020;50.890;15.796;2022-08-03T03:37:27;97848.39;;;15.49;77.58
58223;BME280;44020;50.890;15.796;2022-08-03T03:39:54;97845.16;;;15.47;77.40
58223;BME280;44020;50.890;15.796;2022-08-03T03:42:22;97850.14;;;15.43;77.49
58223;BME280;44020;50.890;15.796;2022-08-03T03:44:49;97850.47;;;15.41;77.53
58223;BME280;44020;50.890;15.796;2022-08-03T03:47:17;97853.80;;;15.38;77.44
58223;BME280;44020;50.890;15.796;2022-08-03T03:49:44;97854.05;;;15.37;77.50
58223;BME280;44020;50.890;15.796;2022-08-03T03:52:12;97853.06;;;15.36;77.57
58223;BME280;44020;50.890;15.796;2022-08-03T03:54:40;97855.11;;;15.35;77.73
58223;BME280;44020;50.890;15.796;2022-08-03T03:57:08;97865.04;;;15.36;77.70
58223;BME280;44020;50.890;15.796;2022-08-03T03:59:40;97859.85;;;15.34;77.80
58223;BME280;44020;50.890;15.796;2022-08-03T04:02:08;97862.35;;;15.32;77.91
58223;BME280;44020;50.890;15.796;2022-08-03T04:04:37;97863.52;;;15.32;77.96
58223;BME280;44020;50.890;15.796;2022-08-03T04:07:25;97865.90;;;15.31;78.21
58223;BME280;44020;50.890;15.796;2022-08-03T04:10:22;97866.52;;;15.32;78.20
58223;BME280;44020;50.890;15.796;2022-08-03T04:13:13;97870.87;;;15.31;78.22
58223;BME280;44020;50.890;15.796;2022-08-03T04:15:46;97866.85;;;15.30;78.24
58223;BME280;44020;50.890;15.796;2022-08-03T04:18:14;97868.09;;;15.30;78.17
58223;BME280;44020;50.890;15.796;2022-08-03T04:20:44;97870.27;;;15.30;78.33
58223;BME280;44020;50.890;15.796;2022-08-03T04:23:19;97872.20;;;15.30;78.48
58223;BME280;44020;50.890;15.796;2022-08-03T04:25:48;97871.67;;;15.30;78.49
58223;BME280;44020;50.890;15.796;2022-08-03T04:28:19;97868.77;;;15.31;78.61
58223;BME280;44020;50.890;15.796;2022-08-03T04:30:48;97869.95;;;15.31;78.70
58223;BME280;44020;50.890;15.796;2022-08-03T04:33:18;97873.98;;;15.32;78.86
58223;BME280;44020;50.890;15.796;2022-08-03T04:35:45;97874.33;;;15.35;78.90
58223;BME280;44020;50.890;15.796;2022-08-03T04:38:14;97875.23;;;15.38;79.04
58223;BME280;44020;50.890;15.796;2022-08-03T04:40:45;97878.21;;;15.41;79.05
58223;BME280;44020;50.890;15.796;2022-08-03T04:43:13;97878.16;;;15.44;79.16
58223;BME280;44020;50.890;15.796;2022-08-03T04:45:42;97878.73;;;15.48;79.32
58223;BME280;44020;50.890;15.796;2022-08-03T04:48:13;97876.42;;;15.52;79.22
58223;BME280;44020;50.890;15.796;2022-08-03T04:50:41;97877.17;;;15.55;79.40
58223;BME280;44020;50.890;15.796;2022-08-03T04:53:08;97875.41;;;15.59;79.43
58223;BME280;44020;50.890;15.796;2022-08-03T04:55:35;97871.69;;;15.65;79.59
58223;BME280;44020;50.890;15.796;2022-08-03T04:58:04;97876.23;;;15.71;79.58
58223;BME280;44020;50.890;15.796;2022-08-03T05:00:32;97875.07;;;15.75;79.64
58223;BME280;44020;50.890;15.796;2022-08-03T05:02:59;97875.36;;;15.80;79.73
58223;BME280;44020;50.890;15.796;2022-08-03T05:05:26;97874.23;;;15.87;79.87
58223;BME280;44020;50.890;15.796;2022-08-03T05:07:53;97873.54;;;15.93;79.91
58223;BME280;44020;50.890;15.796;2022-08-03T05:10:20;97869.96;;;15.98;79.98
58223;BME280;44020;50.890;15.796;2022-08-03T05:12:47;97872.24;;;16.05;80.08
58223;BME280;44020;50.890;15.796;2022-08-03T05:15:14;97870.95;;;16.12;80.22
58223;BME280;44020;50.890;15.796;2022-08-03T05:17:42;97875.66;;;16.19;80.30
58223;BME280;44020;50.890;15.796;2022-08-03T05:20:09;97873.39;;;16.26;80.48
58223;BME280;44020;50.890;15.796;2022-08-03T05:22:37;97875.40;;;16.34;80.47
58223;BME280;44020;50.890;15.796;2022-08-03T05:25:04;97874.36;;;16.41;80.58
58223;BME280;44020;50.890;15.796;2022-08-03T05:27:31;97872.39;;;16.49;80.65
58223;BME280;44020;50.890;15.796;2022-08-03T05:29:59;97870.03;;;16.57;80.54
58223;BME280;44020;50.890;15.796;2022-08-03T05:32:26;97872.67;;;16.65;80.45
58223;BME280;44020;50.890;15.796;2022-08-03T05:34:52;97872.31;;;16.73;80.57
58223;BME280;44020;50.890;15.796;2022-08-03T05:37:19;97869.95;;;16.80;80.54
58223;BME280;44020;50.890;15.796;2022-08-03T05:39:46;97870.52;;;16.87;80.49
58223;BME280;44020;50.890;15.796;2022-08-03T05:42:14;97871.45;;;16.94;80.41
58223;BME280;44020;50.890;15.796;2022-08-03T05:44:42;97875.39;;;17.02;80.38
58223;BME280;44020;50.890;15.796;2022-08-03T05:47:10;97874.48;;;17.10;80.30
58223;BME280;44020;50.890;15.796;2022-08-03T05:49:37;97875.27;;;17.17;80.25
58223;BME280;44020;50.890;15.796;2022-08-03T05:52:04;97877.95;;;17.24;80.22
58223;BME280;44020;50.890;15.796;2022-08-03T05:54:32;97874.80;;;17.33;80.15
58223;BME280;44020;50.890;15.796;2022-08-03T05:56:59;97875.15;;;17.43;80.21
58223;BME280;44020;50.890;15.796;2022-08-03T05:59:26;97875.48;;;17.52;80.08
58223;BME280;44020;50.890;15.796;2022-08-03T06:01:53;97874.54;;;17.62;80.07
58223;BME280;44020;50.890;15.796;2022-08-03T06:04:20;97878.50;;;17.72;80.08
58223;BME280;44020;50.890;15.796;2022-08-03T06:06:47;97874.67;;;17.79;79.76
58223;BME280;44020;50.890;15.796;2022-08-03T06:09:16;97876.52;;;17.88;79.58
58223;BME280;44020;50.890;15.796;2022-08-03T06:11:43;97876.22;;;17.97;79.54
58223;BME280;44020;50.890;15.796;2022-08-03T06:14:10;97874.91;;;18.06;79.48
58223;BME280;44020;50.890;15.796;2022-08-03T06:16:38;97871.68;;;18.16;79.33
58223;BME280;44020;50.890;15.796;2022-08-03T06:19:05;97872.64;;;18.26;79.44
58223;BME280;44020;50.890;15.796;2022-08-03T06:21:32;97873.26;;;18.36;79.28
58223;BME280;44020;50.890;15.796;2022-08-03T06:23:59;97871.35;;;18.46;79.17
58223;BME280;44020;50.890;15.796;2022-08-03T06:26:26;97868.51;;;18.55;79.12
58223;BME280;44020;50.890;15.796;2022-08-03T06:28:54;97867.75;;;18.64;78.98
58223;BME280;44020;50.890;15.796;2022-08-03T06:31:25;97868.60;;;18.75;78.80
58223;BME280;44020;50.890;15.796;2022-08-03T06:33:53;97868.19;;;18.85;78.67
58223;BME280;44020;50.890;15.796;2022-08-03T06:36:20;97864.77;;;18.94;78.21
58223;BME280;44020;50.890;15.796;2022-08-03T06:38:47;97864.77;;;19.03;78.07
58223;BME280;44020;50.890;15.796;2022-08-03T06:41:14;97861.25;;;19.12;78.11
58223;BME280;44020;50.890;15.796;2022-08-03T06:43:42;97862.58;;;19.22;78.06
58223;BME280;44020;50.890;15.796;2022-08-03T06:46:09;97864.23;;;19.32;77.87
58223;BME280;44020;50.890;15.796;2022-08-03T06:48:36;97859.74;;;19.41;77.57
58223;BME280;44020;50.890;15.796;2022-08-03T06:51:03;97862.44;;;19.50;77.16
58223;BME280;44020;50.890;15.796;2022-08-03T06:53:30;97868.23;;;19.60;76.99
58223;BME280;44020;50.890;15.796;2022-08-03T06:55:57;97866.96;;;19.70;76.75
58223;BME280;44020;50.890;15.796;2022-08-03T06:58:24;97867.66;;;19.81;76.63
58223;BME280;44020;50.890;15.796;2022-08-03T07:00:52;97868.14;;;19.92;76.32
58223;BME280;44020;50.890;15.796;2022-08-03T07:03:18;97866.05;;;20.03;76.17
58223;BME280;44020;50.890;15.796;2022-08-03T07:05:46;97866.63;;;20.14;75.86
58223;BME280;44020;50.890;15.796;2022-08-03T07:08:13;97866.52;;;20.26;75.52
58223;BME280;44020;50.890;15.796;2022-08-03T07:10:40;97865.40;;;20.37;75.38
58223;BME280;44020;50.890;15.796;2022-08-03T07:13:07;97864.27;;;20.50;75.00
58223;BME280;44020;50.890;15.796;2022-08-03T07:15:35;97860.43;;;20.61;74.95
58223;BME280;44020;50.890;15.796;2022-08-03T07:18:03;97860.00;;;20.73;74.92
58223;BME280;44020;50.890;15.796;2022-08-03T07:20:30;97858.55;;;20.86;74.41
58223;BME280;44020;50.890;15.796;2022-08-03T07:22:57;97859.13;;;20.99;73.96
58223;BME280;44020;50.890;15.796;2022-08-03T07:25:24;97858.78;;;21.10;73.68
58223;BME280;44020;50.890;15.796;2022-08-03T07:27:52;97851.73;;;21.21;73.20
58223;BME280;44020;50.890;15.796;2022-08-03T07:30:19;97854.75;;;21.33;72.84
58223;BME280;44020;50.890;15.796;2022-08-03T07:32:46;97860.19;;;21.46;72.61
58223;BME280;44020;50.890;15.796;2022-08-03T07:35:13;97857.50;;;21.57;72.06
58223;BME280;44020;50.890;15.796;2022-08-03T07:37:40;97855.87;;;21.70;71.89
58223;BME280;44020;50.890;15.796;2022-08-03T07:40:07;97857.27;;;21.83;71.59
58223;BME280;44020;50.890;15.796;2022-08-03T07:42:35;97854.98;;;21.97;71.24
58223;BME280;44020;50.890;15.796;2022-08-03T07:45:02;97852.05;;;22.10;71.44
58223;BME280;44020;50.890;15.796;2022-08-03T07:47:30;97852.67;;;22.25;71.14
58223;BME280;44020;50.890;15.796;2022-08-03T07:49:57;97853.77;;;22.39;70.31
58223;BME280;44020;50.890;15.796;2022-08-03T07:52:24;97851.66;;;22.50;69.84
58223;BME280;44020;50.890;15.796;2022-08-03T07:55:10;97847.80;;;22.66;69.50
58223;BME280;44020;50.890;15.796;2022-08-03T07:57:37;97853.34;;;22.81;68.63
58223;BME280;44020;50.890;15.796;2022-08-03T08:00:07;97853.48;;;22.95;67.69
58223;BME280;44020;50.890;15.796;2022-08-03T08:02:39;97849.77;;;23.10;67.03
58223;BME280;44020;50.890;15.796;2022-08-03T08:05:07;97847.60;;;23.23;66.45
58223;BME280;44020;50.890;15.796;2022-08-03T08:07:37;97849.51;;;23.37;65.91
58223;BME280;44020;50.890;15.796;2022-08-03T08:10:07;97847.94;;;23.50;65.25
58223;BME280;44020;50.890;15.796;2022-08-03T08:12:37;97846.82;;;23.63;64.93
58223;BME280;44020;50.890;15.796;2022-08-03T08:15:05;97846.87;;;23.74;64.13
58223;BME280;44020;50.890;15.796;2022-08-03T08:17:52;97843.39;;;23.82;63.61
58223;BME280;44020;50.890;15.796;2022-08-03T08:20:22;97842.77;;;23.95;63.53
58223;BME280;44020;50.890;15.796;2022-08-03T08:22:50;97844.89;;;24.04;62.74
58223;BME280;44020;50.890;15.796;2022-08-03T08:25:17;97844.27;;;24.10;61.97
58223;BME280;44020;50.890;15.796;2022-08-03T08:27:47;97846.23;;;24.18;61.65
58223;BME280;44020;50.890;15.796;2022-08-03T08:30:17;97843.11;;;24.27;61.46
58223;BME280;44020;50.890;15.796;2022-08-03T08:32:46;97845.48;;;24.35;61.67
58223;BME280;44020;50.890;15.796;2022-08-03T08:35:15;97844.73;;;24.44;61.20
58223;BME280;44020;50.890;15.796;2022-08-03T08:37:42;97840.09;;;24.50;60.87
58223;BME280;44020;50.890;15.796;2022-08-03T08:40:10;97840.35;;;24.59;60.63
58223;BME280;44020;50.890;15.796;2022-08-03T08:42:40;97839.49;;;24.69;60.21
58223;BME280;44020;50.890;15.796;2022-08-03T08:45:10;97837.34;;;24.76;59.80
58223;BME280;44020;50.890;15.796;2022-08-03T08:47:39;97837.86;;;24.86;59.84
58223;BME280;44020;50.890;15.796;2022-08-03T08:50:07;97839.20;;;24.95;59.00
58223;BME280;44020;50.890;15.796;2022-08-03T08:52:35;97841.08;;;25.05;58.90
58223;BME280;44020;50.890;15.796;2022-08-03T08:55:08;97836.53;;;25.13;58.32
58223;BME280;44020;50.890;15.796;2022-08-03T08:57:38;97835.83;;;25.21;57.31
58223;BME280;44020;50.890;15.796;2022-08-03T09:00:09;97833.33;;;25.29;57.17
58223;BME280;44020;50.890;15.796;2022-08-03T09:02:41;97833.95;;;25.34;56.50
58223;BME280;44020;50.890;15.796;2022-08-03T09:05:16;97829.09;;;25.36;55.60
58223;BME280;44020;50.890;15.796;2022-08-03T09:07:46;97832.40;;;25.40;55.88
58223;BME280;44020;50.890;15.796;2022-08-03T09:10:16;97830.09;;;25.47;56.05
58223;BME280;44020;50.890;15.796;2022-08-03T09:12:49;97831.48;;;25.55;56.06
58223;BME280;44020;50.890;15.796;2022-08-03T09:15:21;97835.04;;;25.65;55.29
58223;BME280;44020;50.890;15.796;2022-08-03T09:17:51;97835.04;;;25.71;55.02
58223;BME280;44020;50.890;15.796;2022-08-03T09:20:20;97833.51;;;25.76;54.33
58223;BME280;44020;50.890;15.796;2022-08-03T09:22:52;97835.44;;;25.84;54.46
58223;BME280;44020;50.890;15.796;2022-08-03T09:25:25;97833.77;;;25.88;53.82
58223;BME280;44020;50.890;15.796;2022-08-03T09:27:53;97834.70;;;25.91;53.88
58223;BME280;44020;50.890;15.796;2022-08-03T09:30:21;97830.16;;;25.98;53.54
58223;BME280;44020;50.890;15.796;2022-08-03T09:32:48;97835.16;;;26.06;53.34
58223;BME280;44020;50.890;15.796;2022-08-03T09:35:26;97834.39;;;26.14;53.06
58223;BME280;44020;50.890;15.796;2022-08-03T09:38:17;97833.33;;;26.23;52.77
58223;BME280;44020;50.890;15.796;2022-08-03T09:40:45;97827.56;;;26.31;52.34
58223;BME280;44020;50.890;15.796;2022-08-03T09:43:12;97832.11;;;26.36;52.32
58223;BME280;44020;50.890;15.796;2022-08-03T09:45:40;97829.62;;;26.47;52.01
58223;BME280;44020;50.890;15.796;2022-08-03T09:48:28;97829.30;;;26.59;51.98
58223;BME280;44020;50.890;15.796;2022-08-03T09:50:57;97831.63;;;26.70;52.22
58223;BME280;44020;50.890;15.796;2022-08-03T09:53:25;97829.88;;;26.79;51.43
58223;BME280;44020;50.890;15.796;2022-08-03T09:55:57;97827.92;;;26.88;51.13
58223;BME280;44020;50.890;15.796;2022-08-03T09:58:27;97828.88;;;26.96;50.28
58223;BME280;44020;50.890;15.796;2022-08-03T10:00:58;97826.23;;;27.04;49.96
58223;BME280;44020;50.890;15.796;2022-08-03T10:03:28;97826.20;;;27.09;49.50
58223;BME280;44020;50.890;15.796;2022-08-03T10:05:56;97827.96;;;27.05;49.29
58223;BME280;44020;50.890;15.796;2022-08-03T10:08:23;97829.77;;;27.05;49.77
58223;BME280;44020;50.890;15.796;2022-08-03T10:10:51;97827.12;;;27.09;49.49
58223;BME280;44020;50.890;15.796;2022-08-03T10:13:24;97820.27;;;27.12;49.21
58223;BME280;44020;50.890;15.796;2022-08-03T10:15:51;97816.64;;;27.17;49.29
58223;BME280;44020;50.890;15.796;2022-08-03T10:18:18;97815.69;;;27.27;49.55
58223;BME280;44020;50.890;15.796;2022-08-03T10:20:51;97810.42;;;27.36;49.23
58223;BME280;44020;50.890;15.796;2022-08-03T10:23:20;97808.77;;;27.46;49.17
58223;BME280;44020;50.890;15.796;2022-08-03T10:25:52;97811.31;;;27.56;48.56
58223;BME280;44020;50.890;15.796;2022-08-03T10:28:21;97809.56;;;27.65;48.30
58223;BME280;44020;50.890;15.796;2022-08-03T10:30:50;97808.02;;;27.77;48.62
58223;BME280;44020;50.890;15.796;2022-08-03T10:33:27;97810.83;;;27.88;47.85
58223;BME280;44020;50.890;15.796;2022-08-03T10:35:58;97806.55;;;27.96;47.61
58223;BME280;44020;50.890;15.796;2022-08-03T10:38:43;97806.69;;;28.05;47.36
58223;BME280;44020;50.890;15.796;2022-08-03T10:41:20;97809.16;;;28.14;47.18
58223;BME280;44020;50.890;15.796;2022-08-03T10:44:09;97812.54;;;28.14;46.74
58223;BME280;44020;50.890;15.796;2022-08-03T10:46:40;97815.13;;;28.24;46.56
58223;BME280;44020;50.890;15.796;2022-08-03T10:49:16;97809.63;;;28.33;46.10
58223;BME280;44020;50.890;15.796;2022-08-03T10:51:45;97807.94;;;28.35;45.18
58223;BME280;44020;50.890;15.796;2022-08-03T10:57:47;97808.21;;;28.57;45.56
58223;BME280;44020;50.890;15.796;2022-08-03T11:00:16;97803.64;;;28.71;45.64
58223;BME280;44020;50.890;15.796;2022-08-03T11:03:07;97801.29;;;28.82;45.19
58223;BME280;44020;50.890;15.796;2022-08-03T11:05:45;97800.66;;;28.92;44.92
58223;BME280;44020;50.890;15.796;2022-08-03T11:08:27;97797.13;;;28.95;44.36
58223;BME280;44020;50.890;15.796;2022-08-03T11:11:02;97796.63;;;28.95;43.60
58223;BME280;44020;50.890;15.796;2022-08-03T11:16:39;97792.73;;;29.06;43.62
58223;BME280;44020;50.890;15.796;2022-08-03T11:19:12;97789.45;;;29.13;43.86
58223;BME280;44020;50.890;15.796;2022-08-03T11:27:24;97789.83;;;29.06;44.04
58223;BME280;44020;50.890;15.796;2022-08-03T11:35:15;97792.38;;;29.21;44.37
58223;BME280;44020;50.890;15.796;2022-08-03T11:45:57;97784.52;;;29.56;43.11
58223;BME280;44020;50.890;15.796;2022-08-03T11:48:42;97776.81;;;29.49;42.84
58223;BME280;44020;50.890;15.796;2022-08-03T11:53:56;97775.96;;;29.53;43.15
58223;BME280;44020;50.890;15.796;2022-08-03T11:56:24;97772.27;;;29.63;42.73
58223;BME280;44020;50.890;15.796;2022-08-03T11:58:54;97775.59;;;29.74;42.92
58223;BME280;44020;50.890;15.796;2022-08-03T12:01:23;97776.74;;;29.89;42.82
58223;BME280;44020;50.890;15.796;2022-08-03T12:03:51;97773.79;;;29.91;42.25
58223;BME280;44020;50.890;15.796;2022-08-03T12:06:18;97769.33;;;29.82;42.59
58223;BME280;44020;50.890;15.796;2022-08-03T12:08:45;97767.27;;;29.77;42.98
58223;BME280;44020;50.890;15.796;2022-08-03T12:11:16;97765.07;;;29.88;43.05
58223;BME280;44020;50.890;15.796;2022-08-03T12:13:48;97764.83;;;29.92;42.74
58223;BME280;44020;50.890;15.796;2022-08-03T12:16:21;97764.59;;;29.90;42.59
58223;BME280;44020;50.890;15.796;2022-08-03T12:18:56;97764.25;;;30.00;42.16
58223;BME280;44020;50.890;15.796;2022-08-03T12:21:22;97760.89;;;29.98;42.47
58223;BME280;44020;50.890;15.796;2022-08-03T12:23:55;97760.20;;;29.99;41.86
58223;BME280;44020;50.890;15.796;2022-08-03T12:26:23;97761.73;;;30.12;41.26
58223;BME280;44020;50.890;15.796;2022-08-03T12:28:50;97760.69;;;30.27;41.22
58223;BME280;44020;50.890;15.796;2022-08-03T12:31:17;97760.33;;;30.36;40.66
58223;BME280;44020;50.890;15.796;2022-08-03T12:34:04;97758.29;;;30.48;41.16
58223;BME280;44020;50.890;15.796;2022-08-03T12:36:34;97752.61;;;30.57;40.68
58223;BME280;44020;50.890;15.796;2022-08-03T12:39:07;97755.08;;;30.56;40.77
58223;BME280;44020;50.890;15.796;2022-08-03T12:41:36;97756.40;;;30.44;40.40
58223;BME280;44020;50.890;15.796;2022-08-03T12:44:06;97751.92;;;30.31;40.68
58223;BME280;44020;50.890;15.796;2022-08-03T12:46:38;97753.86;;;30.20;40.49
58223;BME280;44020;50.890;15.796;2022-08-03T12:49:15;97749.87;;;30.09;40.60
58223;BME280;44020;50.890;15.796;2022-08-03T12:54:25;97749.15;;;29.91;40.98
58223;BME280;44020;50.890;15.796;2022-08-03T12:57:03;97745.42;;;29.84;41.46
58223;BME280;44020;50.890;15.796;2022-08-03T12:59:35;97745.73;;;29.83;41.85
58223;BME280;44020;50.890;15.796;2022-08-03T13:02:03;97744.58;;;29.81;41.65
58223;BME280;44020;50.890;15.796;2022-08-03T13:04:34;97742.98;;;29.90;41.79
58223;BME280;44020;50.890;15.796;2022-08-03T13:07:04;97739.85;;;30.06;41.43
58223;BME280;44020;50.890;15.796;2022-08-03T13:09:47;97739.11;;;30.25;41.48
58223;BME280;44020;50.890;15.796;2022-08-03T13:12:17;97738.27;;;30.40;41.20
58223;BME280;44020;50.890;15.796;2022-08-03T13:14:46;97737.50;;;30.34;41.22
58223;BME280;44020;50.890;15.796;2022-08-03T13:17:14;97743.04;;;30.37;41.09
58223;BME280;44020;50.890;15.796;2022-08-03T13:19:45;97740.64;;;30.51;40.63
58223;BME280;44020;50.890;15.796;2022-08-03T13:24:49;97744.77;;;30.77;39.62
58223;BME280;44020;50.890;15.796;2022-08-03T13:27:17;97741.95;;;30.89;39.75
58223;BME280;44020;50.890;15.796;2022-08-03T13:29:45;97740.11;;;31.01;39.92
58223;BME280;44020;50.890;15.796;2022-08-03T13:32:12;97740.23;;;31.13;39.59
58223;BME280;44020;50.890;15.796;2022-08-03T13:34:39;97737.14;;;31.20;39.25
58223;BME280;44020;50.890;15.796;2022-08-03T13:37:07;97734.92;;;31.22;38.92
58223;BME280;44020;50.890;15.796;2022-08-03T13:39:34;97736.08;;;31.31;39.27
58223;BME280;44020;50.890;15.796;2022-08-03T13:42:01;97735.35;;;31.36;39.11
58223;BME280;44020;50.890;15.796;2022-08-03T13:44:28;97735.77;;;31.30;39.29
58223;BME280;44020;50.890;15.796;2022-08-03T13:46:56;97737.04;;;31.18;39.55
58223;BME280;44020;50.890;15.796;2022-08-03T13:49:23;97733.79;;;31.06;39.35
58223;BME280;44020;50.890;15.796;2022-08-03T13:51:51;97732.20;;;31.04;39.32
58223;BME280;44020;50.890;15.796;2022-08-03T13:54:18;97727.73;;;31.13;39.42
58223;BME280;44020;50.890;15.796;2022-08-03T13:56:45;97729.67;;;31.23;39.32
58223;BME280;44020;50.890;15.796;2022-08-03T13:59:19;97725.40;;;31.27;39.41
58223;BME280;44020;50.890;15.796;2022-08-03T14:01:47;97723.48;;;31.32;39.39
58223;BME280;44020;50.890;15.796;2022-08-03T14:04:15;97718.45;;;31.36;39.47
58223;BME280;44020;50.890;15.796;2022-08-03T14:06:43;97720.80;;;31.40;39.15
58223;BME280;44020;50.890;15.796;2022-08-03T14:09:12;97719.04;;;31.37;38.95
58223;BME280;44020;50.890;15.796;2022-08-03T14:11:41;97722.60;;;31.25;39.40
58223;BME280;44020;50.890;15.796;2022-08-03T14:14:09;97721.23;;;31.11;39.63